Time;durP1;ratioP1;P1;durP2;ratioP2;P2;SDS_P1;SDS_P2;PMS_P1;PMS_P2;Temp;Humidity;BMP_temperature;BMP_pressure;BME280_temperature;BME280_humidity;BME280_pressure;Samples;Min_cycle;Max_cycle;Signal;HPM_P1;HPM_P2
2021/05/18 00:01:46;;;;;;;36.95;19.83;;;10.60;99.90;;;;;;5094704;28;20024;-68
2021/05/18 00:04:12;;;;;;;37.83;18.48;;;10.50;99.90;;;;;;5094963;28;20155;-68
2021/05/18 00:06:37;;;;;;;37.50;19.63;;;10.40;99.90;;;;;;5094921;28;20035;-68
2021/05/18 00:11:50;;;;;;;33.58;16.27;;;10.30;99.90;;;;;;5094158;28;20035;-69
2021/05/18 00:14:20;;;;;;;31.17;15.70;;;10.20;99.90;;;;;;5094465;28;20024;-69
2021/05/18 00:16:46;;;;;;;32.35;15.38;;;10.10;99.90;;;;;;5094748;28;20099;-69
2021/05/18 00:19:13;;;;;;;32.33;15.68;;;10.00;99.90;;;;;;5094178;28;20020;-69
2021/05/18 00:21:40;;;;;;;32.35;16.35;;;9.90;99.90;;;;;;5093226;28;20028;-69
2021/05/18 00:24:06;;;;;;;33.00;15.60;;;9.80;99.90;;;;;;5094094;28;20081;-69
2021/05/18 00:26:32;;;;;;;39.17;17.25;;;9.80;99.90;;;;;;5094602;28;20453;-69
2021/05/18 00:28:58;;;;;;;29.13;16.58;;;9.80;99.90;;;;;;5094310;28;20031;-69
2021/05/18 00:31:23;;;;;;;36.03;16.38;;;9.70;99.90;;;;;;5094517;28;20028;-68
2021/05/18 00:33:49;;;;;;;37.20;16.98;;;9.70;99.90;;;;;;5094284;28;20024;-68
2021/05/18 00:36:15;;;;;;;39.25;18.48;;;9.70;99.90;;;;;;5094211;28;20028;-69
2021/05/18 00:38:41;;;;;;;34.38;17.55;;;9.70;99.90;;;;;;5094437;28;20051;-68
2021/05/18 00:41:09;;;;;;;38.47;17.60;;;9.80;99.90;;;;;;5093807;28;20028;-68
2021/05/18 00:43:35;;;;;;;35.55;16.77;;;9.80;99.90;;;;;;5094363;28;20016;-68
2021/05/18 00:46:01;;;;;;;36.78;17.50;;;9.80;99.90;;;;;;5094350;28;20073;-69
2021/05/18 00:48:27;;;;;;;36.35;16.67;;;9.90;99.90;;;;;;5093764;28;20385;-68
2021/05/18 00:50:56;;;;;;;30.00;14.50;;;9.90;99.90;;;;;;5094007;28;20032;-68
2021/05/18 00:53:23;;;;;;;40.00;14.98;;;9.80;99.90;;;;;;5094246;28;20109;-68
2021/05/18 00:55:57;;;;;;;34.58;14.98;;;9.80;99.90;;;;;;5094085;28;20020;-68
2021/05/18 00:58:33;;;;;;;30.48;14.18;;;9.70;99.90;;;;;;5094220;28;20062;-69
2021/05/18 01:01:06;;;;;;;35.08;14.98;;;9.70;99.90;;;;;;5093529;28;20048;-68
2021/05/18 01:03:33;;;;;;;42.30;14.60;;;9.80;99.90;;;;;;5092332;28;20492;-69
2021/05/18 01:06:31;;;;;;;35.92;14.93;;;9.80;99.90;;;;;;5093663;28;20036;-69
2021/05/18 01:08:49;;;;;;;32.90;13.88;;;9.80;99.90;;;;;;5092442;28;20354;-69
2021/05/18 01:11:17;;;;;;;32.95;14.18;;;9.70;99.90;;;;;;5094066;28;20113;-68
2021/05/18 01:13:42;;;;;;;32.97;14.18;;;9.80;99.90;;;;;;5094111;28;20047;-68
2021/05/18 01:16:10;;;;;;;38.15;14.88;;;9.80;99.90;;;;;;5093769;28;20488;-68
2021/05/18 01:18:38;;;;;;;32.83;13.95;;;9.80;99.90;;;;;;5093463;28;20024;-68
2021/05/18 01:21:05;;;;;;;34.90;14.73;;;9.80;99.90;;;;;;5093395;28;20085;-68
2021/05/18 01:23:31;;;;;;;37.90;15.20;;;9.80;99.90;;;;;;5093727;28;20111;-68
2021/05/18 01:25:57;;;;;;;38.25;14.38;;;9.80;99.90;;;;;;5093706;28;20100;-68
2021/05/18 01:28:26;;;;;;;31.83;14.70;;;9.80;99.90;;;;;;5093939;28;20048;-68
2021/05/18 01:30:51;;;;;;;34.63;15.32;;;9.80;99.90;;;;;;5093917;28;20021;-69
2021/05/18 01:33:17;;;;;;;34.35;15.73;;;9.70;99.90;;;;;;5093723;28;20039;-68
2021/05/18 01:35:43;;;;;;;36.10;15.27;;;9.80;99.90;;;;;;5092420;28;20031;-68
2021/05/18 01:38:12;;;;;;;40.88;15.57;;;9.80;99.90;;;;;;5093859;28;20088;-69
2021/05/18 01:43:23;;;;;;;37.88;15.68;;;9.70;99.90;;;;;;5093088;28;20028;-68
2021/05/18 01:45:49;;;;;;;41.88;16.48;;;9.80;99.90;;;;;;5092336;28;20462;-68
2021/05/18 01:48:16;;;;;;;34.03;14.07;;;9.70;99.90;;;;;;5093713;28;20024;-68
2021/05/18 01:50:46;;;;;;;34.83;15.27;;;9.80;99.90;;;;;;5093488;28;20153;-68
2021/05/18 01:53:14;;;;;;;31.55;15.05;;;9.80;99.90;;;;;;5093437;28;20111;-68
2021/05/18 01:55:47;;;;;;;39.05;14.98;;;9.70;99.90;;;;;;5093181;28;20431;-68
2021/05/18 01:58:14;;;;;;;34.38;15.23;;;9.70;99.90;;;;;;5092266;28;20028;-68
2021/05/18 02:00:45;;;;;;;36.38;16.15;;;9.70;99.90;;;;;;5092850;28;20036;-68
2021/05/18 02:03:11;;;;;;;36.85;14.75;;;9.60;99.90;;;;;;5093631;28;20016;-68
2021/05/18 02:05:39;;;;;;;28.85;14.48;;;9.50;99.90;;;;;;5091735;28;20016;-68
2021/05/18 02:08:07;;;;;;;34.85;16.00;;;9.40;99.90;;;;;;5077902;28;20378;-68
2021/05/18 02:10:33;;;;;;;46.13;16.30;;;9.40;99.90;;;;;;5096957;28;20040;-68
2021/05/18 02:12:59;;;;;;;36.33;15.98;;;9.30;99.90;;;;;;5097172;28;20032;-68
2021/05/18 02:18:38;;;;;;;36.10;15.70;;;9.20;99.90;;;;;;5096387;28;20107;-68
2021/05/18 02:26:28;;;;;;;47.17;18.42;;;8.80;99.90;;;;;;5111227;28;20040;-69
2021/05/18 02:28:54;;;;;;;36.72;17.85;;;8.80;99.90;;;;;;5111953;28;20026;-69
2021/05/18 02:31:21;;;;;;;47.03;20.10;;;8.70;99.90;;;;;;5110323;28;20024;-69
2021/05/18 02:33:50;;;;;;;44.83;18.13;;;8.70;99.90;;;;;;5111548;28;20015;-69
2021/05/18 02:36:19;;;;;;;42.80;19.25;;;8.70;99.90;;;;;;5111744;28;20043;-69
2021/05/18 02:38:45;;;;;;;44.95;19.98;;;8.70;99.90;;;;;;5111166;28;20027;-69
2021/05/18 02:41:11;;;;;;;48.03;19.75;;;8.70;99.90;;;;;;5111715;28;20054;-69
2021/05/18 02:43:44;;;;;;;48.67;20.00;;;8.70;99.90;;;;;;5111584;28;20031;-69
2021/05/18 02:49:04;;;;;;;59.00;21.35;;;8.70;99.90;;;;;;5111336;28;20024;-69
2021/05/18 02:49:14;;;;;;;45.03;19.90;;;8.70;99.90;;;;;;5110787;28;20069;-69
2021/05/18 02:51:45;;;;;;;49.33;22.15;;;8.70;99.90;;;;;;5111524;28;20023;-69
2021/05/18 02:54:12;;;;;;;44.58;21.35;;;8.80;99.90;;;;;;5111182;28;20050;-69
2021/05/18 02:56:45;;;;;;;56.70;23.92;;;8.80;99.90;;;;;;5111131;28;20031;-69
2021/05/18 02:59:16;;;;;;;57.22;25.48;;;8.80;99.90;;;;;;5110863;28;20480;-69
2021/05/18 03:01:44;;;;;;;66.88;24.65;;;8.90;99.90;;;;;;5111245;28;20057;-69
2021/05/18 03:04:09;;;;;;;61.92;25.55;;;8.90;99.90;;;;;;5110971;28;20012;-69
2021/05/18 03:06:35;;;;;;;54.28;26.85;;;8.90;99.90;;;;;;5111165;28;20028;-69
2021/05/18 03:09:07;;;;;;;61.15;29.00;;;8.90;99.90;;;;;;5111163;28;20032;-69
2021/05/18 03:11:33;;;;;;;66.35;29.42;;;9.00;99.90;;;;;;5110813;28;20024;-69
2021/05/18 03:13:59;;;;;;;62.03;28.60;;;9.00;99.90;;;;;;5110791;28;20107;-69
2021/05/18 03:16:24;;;;;;;60.15;29.35;;;9.00;99.90;;;;;;5110683;28;20047;-69
2021/05/18 03:18:50;;;;;;;68.75;30.55;;;9.00;99.90;;;;;;5110677;28;20465;-69
2021/05/18 03:21:15;;;;;;;58.20;28.60;;;9.00;99.90;;;;;;5110389;28;20024;-69
2021/05/18 03:23:41;;;;;;;61.90;29.38;;;9.10;99.90;;;;;;5110348;28;20042;-69
2021/05/18 03:26:07;;;;;;;67.13;33.05;;;9.10;99.90;;;;;;5110249;28;20381;-69
2021/05/18 03:28:33;;;;;;;83.88;37.05;;;9.20;99.90;;;;;;5110784;28;20095;-69
2021/05/18 03:36:21;;;;;;;75.90;35.25;;;9.40;99.90;;;;;;5096033;28;20081;-68
2021/05/18 03:38:54;;;;;;;80.38;33.28;;;9.50;99.90;;;;;;5111848;28;20028;-68
2021/05/18 03:41:24;;;;;;;71.43;33.35;;;9.50;99.90;;;;;;5111846;28;20073;-68
2021/05/18 03:43:59;;;;;;;66.45;32.08;;;9.60;99.90;;;;;;5111777;28;20369;-68
2021/05/18 03:52:24;;;;;;;63.05;31.05;;;9.80;99.90;;;;;;5111233;28;20107;-68
2021/05/18 03:54:49;;;;;;;69.47;31.60;;;9.80;99.90;;;;;;5111185;28;20016;-68
2021/05/18 04:03:06;;;;;;;70.28;29.35;;;9.80;99.90;;;;;;5111035;28;20432;-68
2021/05/18 04:11:19;;;;;;;62.97;29.15;;;10.00;99.90;;;;;;5111223;28;20477;-68
2021/05/18 04:16:58;;;;;;;58.80;30.08;;;10.10;99.90;;;;;;5111256;28;20028;-69
2021/05/18 04:19:13;;;;;;;64.43;30.80;;;10.10;99.90;;;;;;5111114;28;20027;-68
2021/05/18 04:24:48;;;;;;;58.13;33.50;;;10.20;99.90;;;;;;5110851;27;20385;-69
2021/05/18 04:38:37;;;;;;;56.22;28.27;;;10.20;99.90;;;;;;5111209;28;20485;-69
2021/05/18 04:51:58;;;;;;;61.97;24.30;;;10.20;99.90;;;;;;5111165;28;20028;-69
2021/05/18 04:59:59;;;;;;;57.78;26.15;;;10.30;99.90;;;;;;5111019;28;20024;-69
2021/05/18 05:08:25;;;;;;;50.25;24.02;;;10.30;99.90;;;;;;5110835;28;20024;-69
2021/05/18 05:16:05;;;;;;;94.13;51.05;;;10.50;99.90;;;;;;5111220;28;20032;-69
2021/05/18 05:18:30;;;;;;;99.13;55.28;;;10.50;99.90;;;;;;5111870;28;20085;-69
2021/05/18 05:20:56;;;;;;;57.90;29.63;;;10.50;99.90;;;;;;5111866;28;20042;-69
2021/05/18 05:23:22;;;;;;;49.72;26.90;;;10.60;99.90;;;;;;5111545;28;20027;-69
2021/05/18 05:25:47;;;;;;;56.05;26.98;;;10.60;99.90;;;;;;5109952;28;20469;-69
2021/05/18 05:28:13;;;;;;;48.95;25.00;;;10.60;99.90;;;;;;5111417;28;20056;-69
2021/05/18 05:30:41;;;;;;;48.20;24.20;;;10.50;99.90;;;;;;5111395;28;20050;-69
2021/05/18 05:33:06;;;;;;;46.05;26.48;;;10.40;99.90;;;;;;5110977;28;20427;-69
2021/05/18 05:35:32;;;;;;;48.00;23.92;;;10.40;99.90;;;;;;5111103;28;20019;-69
2021/05/18 05:37:58;;;;;;;48.90;26.48;;;10.40;99.90;;;;;;5110398;28;20118;-69
2021/05/18 05:40:24;;;;;;;52.10;26.00;;;10.40;99.90;;;;;;5111207;28;20027;-69
2021/05/18 05:42:49;;;;;;;51.92;27.95;;;10.40;99.90;;;;;;5110855;28;20072;-69
2021/05/18 05:45:15;;;;;;;55.22;29.80;;;10.50;99.90;;;;;;5111376;28;20024;-69
2021/05/18 05:47:40;;;;;;;52.03;29.58;;;10.40;99.90;;;;;;5111013;28;20118;-69
2021/05/18 05:50:07;;;;;;;60.83;31.95;;;10.40;99.90;;;;;;5111273;28;20081;-68
2021/05/18 05:52:34;;;;;;;56.50;28.50;;;10.50;99.90;;;;;;5110826;28;20024;-69
2021/05/18 05:55:00;;;;;;;54.78;29.25;;;10.50;99.90;;;;;;5110842;28;20019;-69
2021/05/18 05:57:25;;;;;;;51.72;28.88;;;10.60;99.90;;;;;;5109299;28;20023;-69
2021/05/18 05:59:51;;;;;;;49.38;25.85;;;10.60;99.90;;;;;;5110319;28;20042;-69
2021/05/18 06:02:16;;;;;;;51.92;29.30;;;10.70;99.90;;;;;;5109712;28;20077;-69
2021/05/18 06:04:42;;;;;;;51.35;28.88;;;10.70;99.90;;;;;;5108836;28;20084;-68
2021/05/18 06:07:08;;;;;;;54.67;28.45;;;10.60;99.90;;;;;;5110906;28;20380;-69
2021/05/18 06:09:35;;;;;;;53.33;28.98;;;10.70;99.90;;;;;;5110226;28;20028;-69
2021/05/18 06:12:14;;;;;;;47.08;26.33;;;10.80;99.90;;;;;;5107706;28;20455;-69
2021/05/18 06:29:34;;;;;;;43.95;24.63;;;10.80;99.90;;;;;;5091223;28;20035;-69
2021/05/18 06:29:43;;;;;;;46.58;27.67;;;10.80;99.90;;;;;;5109642;28;20062;-69
2021/05/18 06:43:07;;;;;;;41.60;24.63;;;10.80;99.90;;;;;;5095711;28;20095;-69
2021/05/18 06:48:18;;;;;;;41.70;26.40;;;10.90;99.90;;;;;;5090336;28;20035;-69
2021/05/18 06:50:44;;;;;;;39.60;25.08;;;11.00;99.90;;;;;;5082591;28;20028;-69
2021/05/18 06:53:10;;;;;;;37.65;24.58;;;11.10;99.90;;;;;;5091612;28;20026;-69
2021/05/18 06:55:37;;;;;;;39.25;24.95;;;11.20;99.90;;;;;;5094166;28;20024;-69
2021/05/18 06:58:06;;;;;;;44.60;26.27;;;11.30;99.90;;;;;;5093783;28;20489;-69
2021/05/18 07:00:36;;;;;;;47.10;26.45;;;11.30;99.90;;;;;;5091534;28;20084;-69
2021/05/18 07:03:03;;;;;;;43.05;25.83;;;11.30;99.90;;;;;;5095030;28;20051;-68
2021/05/18 07:05:40;;;;;;;40.22;25.63;;;11.40;99.90;;;;;;5093496;28;20030;-68
2021/05/18 07:10:50;;;;;;;54.10;30.05;;;11.60;99.90;;;;;;5090603;28;20406;-69
2021/05/18 07:13:16;;;;;;;52.85;30.17;;;11.60;99.90;;;;;;5090531;28;20482;-69
2021/05/18 07:15:42;;;;;;;52.72;30.85;;;11.70;99.90;;;;;;5090084;28;20051;-69
2021/05/18 07:18:08;;;;;;;48.05;29.58;;;11.60;99.90;;;;;;5090767;28;20027;-69
2021/05/18 07:20:34;;;;;;;48.30;29.25;;;11.70;99.90;;;;;;5090650;28;20099;-69
2021/05/18 07:23:07;;;;;;;49.13;28.33;;;11.70;99.90;;;;;;5090594;28;20112;-69
2021/05/18 07:25:32;;;;;;;42.15;26.63;;;11.70;99.90;;;;;;5088676;28;20492;-69
2021/05/18 07:27:58;;;;;;;45.72;27.05;;;11.70;99.90;;;;;;5090026;28;20062;-69
2021/05/18 07:30:36;;;;;;;43.47;26.02;;;11.70;99.90;;;;;;5087582;28;20031;-69
2021/05/18 07:33:01;;;;;;;42.47;26.70;;;11.70;99.90;;;;;;5089246;28;20178;-69
2021/05/18 07:35:27;;;;;;;40.80;25.42;;;11.80;99.90;;;;;;5089466;28;20103;-69
2021/05/18 07:37:53;;;;;;;40.35;25.50;;;11.80;99.90;;;;;;5090520;28;20444;-69
2021/05/18 07:40:19;;;;;;;38.33;25.13;;;11.80;99.90;;;;;;5088937;28;20565;-69
2021/05/18 07:42:45;;;;;;;37.60;24.42;;;11.70;99.90;;;;;;5087701;28;20020;-69
2021/05/18 07:45:11;;;;;;;41.20;25.40;;;11.70;99.90;;;;;;5087990;28;20470;-69
2021/05/18 07:47:38;;;;;;;55.60;37.70;;;11.80;99.90;;;;;;5089158;28;20024;-69
2021/05/18 07:50:08;;;;;;;35.70;23.33;;;11.60;99.90;;;;;;5089287;28;20040;-69
2021/05/18 08:01:17;;;;;;;40.10;25.48;;;11.40;99.90;;;;;;5089700;28;20033;-69
2021/05/18 08:06:21;;;;;;;41.22;24.67;;;11.30;99.90;;;;;;5087557;28;20036;-69
2021/05/18 08:08:47;;;;;;;34.30;23.67;;;11.40;99.90;;;;;;5088964;28;20477;-69
2021/05/18 08:11:13;;;;;;;36.75;24.75;;;11.40;99.90;;;;;;5094624;28;20016;-69
2021/05/18 08:13:39;;;;;;;38.47;24.95;;;11.40;99.90;;;;;;5088990;28;20021;-69
2021/05/18 08:19:40;;;;;;;44.75;27.75;;;11.40;99.90;;;;;;5088435;28;20158;-69
2021/05/18 08:21:58;;;;;;;41.05;25.45;;;11.40;99.90;;;;;;5076865;28;20032;-69
2021/05/18 08:47:54;;;;;;;26.27;16.83;;;12.90;99.90;;;;;;5071698;28;20029;-67
2021/05/18 09:30:06;;;;;;;16.65;14.05;;;15.10;99.90;;;;;;5071786;28;20071;-69
2021/05/18 09:36:27;;;;;;;12.85;10.02;;;16.50;99.90;;;;;;5054365;28;20100;-69
2021/05/18 10:16:01;;;;;;;8.57;7.13;;;14.30;99.90;;;;;;5088323;28;20113;-70
2021/05/18 10:21:33;;;;;;;7.43;6.20;;;14.20;99.90;;;;;;5089548;28;20024;-67
2021/05/18 10:38:46;;;;;;;12.90;11.60;;;13.00;99.90;;;;;;5109768;27;20367;-68
2021/05/18 10:41:17;;;;;;;15.80;12.02;;;12.70;99.90;;;;;;5110629;28;20016;-68
2021/05/18 10:43:45;;;;;;;11.63;9.70;;;12.70;99.90;;;;;;5110639;28;20051;-69
2021/05/18 10:46:13;;;;;;;11.65;10.00;;;12.60;99.90;;;;;;5110182;28;20047;-69
2021/05/18 10:51:43;;;;;;;10.02;8.43;;;12.70;99.90;;;;;;5110696;27;20412;-70
2021/05/18 10:54:34;;;;;;;11.35;8.90;;;12.60;99.90;;;;;;5110804;28;20370;-68
2021/05/18 10:57:03;;;;;;;11.48;8.95;;;12.60;99.90;;;;;;5109908;28;20019;-69
2021/05/18 11:02:29;;;;;;;11.98;9.25;;;12.90;99.90;;;;;;5110240;27;20871;-70
2021/05/18 11:05:06;;;;;;;9.77;8.30;;;12.80;99.90;;;;;;5070547;28;20024;-67
2021/05/18 11:07:36;;;;;;;11.43;8.95;;;12.60;99.90;;;;;;5090036;28;20016;-69
2021/05/18 11:10:06;;;;;;;13.05;9.85;;;12.40;99.90;;;;;;5089843;28;20028;-69
2021/05/18 11:12:32;;;;;;;9.75;8.00;;;12.50;99.90;;;;;;5087808;28;20133;-69
2021/05/18 11:17:40;;;;;;;11.15;8.27;;;12.40;99.90;;;;;;5110307;27;20317;-69
2021/05/18 11:20:14;;;;;;;9.23;7.53;;;12.30;99.90;;;;;;5109693;28;20466;-69
2021/05/18 11:23:39;;;;;;;7.35;6.55;;;12.10;99.90;;;;;;5103882;28;20031;-69
2021/05/18 11:26:11;;;;;;;7.57;6.07;;;12.00;99.90;;;;;;5090272;28;20040;-69
2021/05/18 11:28:40;;;;;;;8.00;6.32;;;11.80;99.90;;;;;;5101674;28;20508;-69
2021/05/18 11:31:08;;;;;;;9.48;5.85;;;11.70;99.90;;;;;;5070448;28;20094;-69
2021/05/18 11:33:47;;;;;;;8.18;6.00;;;11.90;99.90;;;;;;5070215;28;20045;-69
2021/05/18 11:36:15;;;;;;;8.25;5.40;;;12.00;99.90;;;;;;5103986;28;20027;-69
2021/05/18 11:38:50;;;;;;;8.43;5.93;;;12.30;99.90;;;;;;5089954;28;20035;-69
2021/05/18 11:41:35;;;;;;;7.03;5.03;;;12.60;99.90;;;;;;5070253;28;20028;-68
2021/05/18 11:44:02;;;;;;;8.18;6.30;;;12.70;99.90;;;;;;5092860;28;20027;-69
2021/05/18 11:46:29;;;;;;;10.55;4.95;;;12.90;99.90;;;;;;5089717;28;20581;-70
2021/05/18 11:49:03;;;;;;;4.72;4.22;;;13.00;99.90;;;;;;5090015;28;20117;-69
2021/05/18 11:51:47;;;;;;;7.30;5.32;;;13.00;99.90;;;;;;5099109;28;20091;-69
2021/05/18 11:54:15;;;;;;;5.35;4.70;;;13.00;99.90;;;;;;5100416;28;20031;-69
2021/05/18 11:56:43;;;;;;;5.60;4.93;;;13.00;99.90;;;;;;5108103;28;20027;-69
2021/05/18 11:59:13;;;;;;;5.97;5.20;;;13.00;99.90;;;;;;5106474;28;20388;-69
2021/05/18 12:01:58;;;;;;;6.30;4.50;;;13.00;99.90;;;;;;5101122;28;20541;-69
2021/05/18 12:04:25;;;;;;;7.32;5.25;;;12.90;99.90;;;;;;5092234;28;20024;-69
2021/05/18 12:07:01;;;;;;;6.40;5.13;;;12.80;99.90;;;;;;5088400;28;20082;-69
2021/05/18 12:09:28;;;;;;;8.15;4.88;;;12.90;99.90;;;;;;5090131;28;20028;-69
2021/05/18 12:12:02;;;;;;;5.90;4.35;;;12.90;99.90;;;;;;5089123;28;20069;-69
2021/05/18 12:14:29;;;;;;;6.55;4.75;;;12.80;99.90;;;;;;5106005;28;20020;-69
2021/05/18 12:16:56;;;;;;;6.57;5.15;;;13.00;99.90;;;;;;5099478;28;20083;-69
2021/05/18 12:19:22;;;;;;;7.43;5.30;;;13.30;99.90;;;;;;5091502;28;20526;-69
2021/05/18 12:21:50;;;;;;;6.78;5.88;;;13.60;99.90;;;;;;5075245;28;20036;-69
2021/05/18 12:24:19;;;;;;;7.82;5.53;;;13.70;99.90;;;;;;5105854;28;20020;-69
2021/05/18 12:26:48;;;;;;;7.97;6.10;;;13.60;99.90;;;;;;5097111;28;20099;-70
2021/05/18 12:29:37;;;;;;;8.38;5.63;;;13.90;99.90;;;;;;5088466;28;20029;-69
2021/05/18 12:32:27;;;;;;;6.15;5.55;;;14.00;99.90;;;;;;5080164;28;20029;-70
2021/05/18 12:34:58;;;;;;;8.02;6.15;;;14.10;99.90;;;;;;5080176;28;20159;-70
2021/05/18 12:37:43;;;;;;;9.25;6.70;;;13.90;99.90;;;;;;5086441;28;20381;-70
2021/05/18 12:40:18;;;;;;;7.32;5.80;;;13.70;99.90;;;;;;5079455;28;20031;-70
2021/05/18 12:42:45;;;;;;;7.35;6.18;;;13.60;99.90;;;;;;5080603;28;20145;-70
2021/05/18 12:45:21;;;;;;;8.27;6.13;;;13.60;99.90;;;;;;5075270;28;20105;-69
2021/05/18 12:47:59;;;;;;;9.15;7.00;;;13.70;99.90;;;;;;5083925;28;20370;-69
2021/05/18 12:50:47;;;;;;;11.27;6.47;;;13.90;99.90;;;;;;5094395;28;20445;-69
2021/05/18 12:53:32;;;;;;;7.18;5.95;;;14.20;99.90;;;;;;5094235;28;20480;-70
2021/05/18 12:55:59;;;;;;;6.53;5.25;;;14.20;99.90;;;;;;5091264;28;20036;-69
2021/05/18 12:58:31;;;;;;;6.70;5.22;;;14.20;99.90;;;;;;5075161;28;20020;-70
2021/05/18 13:01:13;;;;;;;6.60;5.57;;;14.40;99.90;;;;;;5078426;28;20024;-70
2021/05/18 13:03:41;;;;;;;6.30;5.18;;;14.50;99.90;;;;;;5093037;28;20020;-69
2021/05/18 13:06:07;;;;;;;7.07;4.40;;;14.60;99.90;;;;;;5090794;28;20389;-69
2021/05/18 13:08:34;;;;;;;7.90;5.35;;;14.60;99.90;;;;;;5074615;28;20103;-69
2021/05/18 13:16:20;;;;;;;5.00;4.50;;;14.70;99.90;;;;;;5110558;27;20109;-69
2021/05/18 13:21:56;;;;;;;4.68;4.20;;;15.40;99.90;;;;;;5110604;27;20363;-68
2021/05/18 13:26:24;;;;;;;4.35;3.95;;;15.50;99.90;;;;;;5110769;28;20028;-68
2021/05/18 13:27:09;;;;;;;4.90;4.40;;;15.30;99.90;;;;;;5110324;28;20473;-68
2021/05/18 13:29:35;;;;;;;5.53;3.65;;;15.20;99.90;;;;;;5109364;28;20469;-70
2021/05/18 13:32:01;;;;;;;4.38;3.58;;;15.40;99.90;;;;;;5109886;28;20020;-68
2021/05/18 13:34:27;;;;;;;5.47;3.90;;;15.50;99.90;;;;;;5110496;28;20034;-68
2021/05/18 13:36:53;;;;;;;4.88;4.10;;;15.80;99.90;;;;;;5096515;28;20028;-70
2021/05/18 13:39:20;;;;;;;4.25;3.85;;;15.90;99.90;;;;;;5101474;28;20447;-70
2021/05/18 13:41:47;;;;;;;4.60;4.15;;;15.90;99.90;;;;;;5110562;28;20019;-70
2021/05/18 13:44:14;;;;;;;5.15;4.60;;;15.80;99.90;;;;;;5110095;28;20016;-70
2021/05/18 13:46:40;;;;;;;5.97;3.67;;;15.60;99.90;;;;;;5109888;28;20024;-70
2021/05/18 13:49:06;;;;;;;5.30;3.80;;;15.90;99.90;;;;;;5110521;28;20024;-70
2021/05/18 13:51:32;;;;;;;4.18;3.65;;;15.60;99.90;;;;;;5110016;28;20080;-70
2021/05/18 13:53:58;;;;;;;4.90;4.10;;;15.30;99.90;;;;;;5108897;28;20016;-70
2021/05/18 13:56:24;;;;;;;4.47;4.07;;;15.20;99.90;;;;;;5109482;28;20024;-70
2021/05/18 13:58:51;;;;;;;5.43;4.57;;;15.40;99.90;;;;;;5109890;28;20385;-70
2021/05/18 14:01:18;;;;;;;4.18;3.60;;;15.50;99.90;;;;;;5110331;28;20028;-70
2021/05/18 14:03:43;;;;;;;4.55;4.15;;;15.70;99.90;;;;;;5109719;28;20048;-70
2021/05/18 14:06:11;;;;;;;6.72;4.20;;;15.90;99.90;;;;;;5109521;28;20093;-70
2021/05/18 14:08:38;;;;;;;4.80;4.28;;;16.00;99.90;;;;;;5107593;28;20464;-70
2021/05/18 14:11:08;;;;;;;5.97;4.35;;;16.10;99.90;;;;;;5109455;28;20031;-70
2021/05/18 14:13:37;;;;;;;6.45;4.47;;;16.00;99.90;;;;;;5109729;28;20020;-70
2021/05/18 14:16:04;;;;;;;4.32;3.58;;;16.10;99.90;;;;;;5109177;28;20028;-70
2021/05/18 14:18:31;;;;;;;5.88;4.72;;;16.20;99.90;;;;;;5109167;28;20418;-68
2021/05/18 14:20:58;;;;;;;4.70;4.10;;;16.40;99.90;;;;;;5109105;28;20424;-70
2021/05/18 14:23:26;;;;;;;5.45;4.30;;;16.30;99.90;;;;;;5109580;28;20020;-69
2021/05/18 14:25:53;;;;;;;6.80;4.60;;;16.20;99.90;;;;;;5109424;28;20098;-69
2021/05/18 14:28:19;;;;;;;5.80;4.47;;;16.00;99.90;;;;;;5107800;28;20101;-70
2021/05/18 14:30:45;;;;;;;5.13;4.47;;;16.00;99.90;;;;;;5106399;28;20038;-70
2021/05/18 14:33:11;;;;;;;8.52;5.57;;;16.20;99.90;;;;;;5095005;28;20028;-70
2021/05/18 14:35:37;;;;;;;6.25;5.40;;;16.20;99.90;;;;;;5095130;28;20377;-70
2021/05/18 14:38:08;;;;;;;6.82;5.97;;;16.00;99.90;;;;;;5086760;28;20027;-70
2021/05/18 14:40:52;;;;;;;7.78;5.55;;;16.20;99.90;;;;;;5093450;28;20062;-70
2021/05/18 14:43:37;;;;;;;6.78;5.57;;;16.10;99.90;;;;;;5094867;28;20028;-69
2021/05/18 14:46:12;;;;;;;10.27;6.32;;;16.20;99.90;;;;;;5093513;28;20424;-70
2021/05/18 14:54:38;;;;;;;11.40;6.90;;;15.80;99.90;;;;;;5092402;28;20032;-70
2021/05/18 14:56:58;;;;;;;8.43;6.72;;;15.90;99.90;;;;;;5093799;28;20032;-70
2021/05/18 14:59:24;;;;;;;8.82;6.40;;;15.80;99.90;;;;;;5093620;28;20468;-70
2021/05/18 15:01:50;;;;;;;10.18;7.45;;;15.60;99.90;;;;;;5092938;28;20073;-70
2021/05/18 15:04:15;;;;;;;7.95;6.50;;;15.50;99.90;;;;;;5095643;28;20016;-70
2021/05/18 15:06:42;;;;;;;11.02;7.32;;;15.40;99.90;;;;;;5096173;28;20050;-70
2021/05/18 15:09:08;;;;;;;7.45;6.35;;;15.10;99.90;;;;;;5094600;28;20471;-70
2021/05/18 15:11:34;;;;;;;8.40;6.00;;;14.80;99.90;;;;;;5094499;28;20085;-70
2021/05/18 15:13:59;;;;;;;9.10;6.20;;;14.40;99.90;;;;;;5095986;28;20052;-70
2021/05/18 15:16:25;;;;;;;10.77;6.10;;;14.20;99.90;;;;;;5095879;28;20089;-70
2021/05/18 15:18:52;;;;;;;8.85;6.03;;;14.00;99.90;;;;;;5096249;28;20117;-70
2021/05/18 15:21:18;;;;;;;11.13;7.55;;;13.40;99.90;;;;;;5095350;28;20071;-70
2021/05/18 15:23:44;;;;;;;11.00;7.45;;;13.20;99.90;;;;;;5095991;28;20056;-69
2021/05/18 15:26:10;;;;;;;10.75;7.60;;;13.00;99.90;;;;;;5095455;28;20097;-70
2021/05/18 15:28:36;;;;;;;14.02;8.45;;;13.00;99.90;;;;;;5094498;28;20446;-70
2021/05/18 15:31:01;;;;;;;10.63;8.02;;;12.80;99.90;;;;;;5095928;28;20034;-70
2021/05/18 15:33:27;;;;;;;11.15;8.05;;;12.80;99.90;;;;;;5095850;28;20107;-70
2021/05/18 15:35:53;;;;;;;12.73;8.25;;;12.90;99.90;;;;;;5095545;28;20051;-70
2021/05/18 15:38:19;;;;;;;11.48;9.20;;;13.00;99.90;;;;;;5095539;28;20032;-70
2021/05/18 15:40:45;;;;;;;14.35;9.60;;;13.00;99.90;;;;;;5095313;28;20020;-70
2021/05/18 15:43:11;;;;;;;17.73;11.68;;;13.00;99.90;;;;;;5094441;28;20382;-70
2021/05/18 15:45:37;;;;;;;13.35;10.00;;;13.20;99.90;;;;;;5095589;28;20058;-70
2021/05/18 15:48:04;;;;;;;14.50;9.32;;;13.30;99.90;;;;;;5095031;28;20052;-70
2021/05/18 15:50:30;;;;;;;11.48;8.65;;;13.80;99.90;;;;;;5095473;28;20024;-69
2021/05/18 15:52:55;;;;;;;11.77;9.00;;;13.90;99.90;;;;;;5095485;28;20031;-70
2021/05/18 15:55:21;;;;;;;12.63;9.57;;;14.30;99.90;;;;;;5095035;28;20031;-70
2021/05/18 15:57:46;;;;;;;16.33;11.88;;;14.50;99.90;;;;;;5095433;28;20028;-70
2021/05/18 16:00:12;;;;;;;18.17;11.40;;;14.60;99.90;;;;;;5095273;28;20028;-70
2021/05/18 16:02:38;;;;;;;17.98;12.30;;;14.60;99.90;;;;;;5093516;28;20027;-70
2021/05/18 16:05:04;;;;;;;13.70;11.13;;;14.60;99.90;;;;;;5093818;28;20032;-70
2021/05/18 16:07:29;;;;;;;13.15;11.70;;;14.60;99.90;;;;;;5094954;28;20020;-70
2021/05/18 16:09:55;;;;;;;14.13;11.52;;;14.70;99.90;;;;;;5094615;28;20031;-70
2021/05/18 16:12:21;;;;;;;14.73;11.48;;;14.80;99.90;;;;;;5094829;28;20473;-70
2021/05/18 16:14:47;;;;;;;13.73;11.27;;;15.00;99.90;;;;;;5094527;28;20024;-70
2021/05/18 16:17:13;;;;;;;17.02;11.32;;;15.10;99.90;;;;;;5095603;28;20031;-70
2021/05/18 16:19:38;;;;;;;15.07;10.98;;;14.90;99.90;;;;;;5094646;28;20036;-70
2021/05/18 16:22:04;;;;;;;14.38;9.45;;;14.80;99.90;;;;;;5094916;28;20024;-70
2021/05/18 16:24:33;;;;;;;11.52;9.60;;;14.80;99.90;;;;;;5095015;28;20020;-70
2021/05/18 16:26:59;;;;;;;11.77;8.57;;;14.70;99.90;;;;;;5094909;28;20016;-70
2021/05/18 16:29:27;;;;;;;11.32;8.85;;;14.60;99.90;;;;;;5094832;28;20099;-70
2021/05/18 16:31:52;;;;;;;12.63;9.73;;;14.60;99.90;;;;;;5094553;28;20457;-70
2021/05/18 16:34:18;;;;;;;13.35;10.18;;;14.50;99.90;;;;;;5094693;28;20031;-70
2021/05/18 16:36:43;;;;;;;12.02;9.93;;;14.50;99.90;;;;;;5094712;28;20017;-70
2021/05/18 16:39:09;;;;;;;15.55;9.65;;;14.50;99.90;;;;;;5094336;28;20028;-70
2021/05/18 16:41:38;;;;;;;13.50;9.55;;;14.40;99.90;;;;;;5094556;28;20032;-70
2021/05/18 16:44:06;;;;;;;13.38;9.40;;;14.30;99.90;;;;;;5094594;28;20024;-70
2021/05/18 16:46:31;;;;;;;16.65;11.02;;;14.20;99.90;;;;;;5094024;28;20024;-70
2021/05/18 16:48:58;;;;;;;14.50;11.05;;;14.10;99.90;;;;;;5094263;28;20029;-70
2021/05/18 16:51:24;;;;;;;12.75;10.15;;;14.10;99.90;;;;;;5094528;28;20012;-70
2021/05/18 16:53:53;;;;;;;13.30;10.35;;;14.20;99.90;;;;;;5094334;28;20099;-70
2021/05/18 16:56:18;;;;;;;13.38;11.77;;;14.10;99.90;;;;;;5093944;28;20108;-70
2021/05/18 16:58:44;;;;;;;15.07;11.10;;;14.00;99.90;;;;;;5094084;28;20056;-70
2021/05/18 17:01:09;;;;;;;16.92;11.70;;;14.10;99.90;;;;;;5093710;28;20078;-69
2021/05/18 17:03:35;;;;;;;15.57;10.88;;;14.20;99.90;;;;;;5093148;28;20038;-70
2021/05/18 17:06:02;;;;;;;12.55;9.15;;;14.40;99.90;;;;;;5094263;28;20103;-70
2021/05/18 17:08:27;;;;;;;11.77;10.05;;;14.60;99.90;;;;;;5093981;28;20020;-70
2021/05/18 17:10:53;;;;;;;12.15;10.15;;;14.70;99.90;;;;;;5094258;28;20024;-70
2021/05/18 17:13:18;;;;;;;11.98;9.13;;;14.80;99.90;;;;;;5093885;28;20374;-70